createdAt,value
2022-08-08T00:00:56.906Z,95954
2022-08-08T00:01:52.726Z,95951
2022-08-08T00:02:43.699Z,95947
2022-08-08T00:03:53.334Z,95949
2022-08-08T00:05:03.011Z,95944
2022-08-08T00:06:12.686Z,95955
2022-08-08T00:07:22.336Z,95952
2022-08-08T00:08:32.003Z,95955
2022-08-08T00:09:40.699Z,95954
2022-08-08T00:10:51.506Z,95957
2022-08-08T00:12:07.856Z,95956
2022-08-08T00:13:10.843Z,95955
2022-08-08T00:14:48.778Z,95954
2022-08-08T00:15:56.232Z,95952
2022-08-08T00:16:43.777Z,95952
2022-08-08T00:18:02.846Z,95951
2022-08-08T00:19:02.198Z,95954
2022-08-08T00:20:14.552Z,95953
2022-08-08T00:21:23.112Z,95948
2022-08-08T00:22:32.387Z,95953
2022-08-08T00:23:47.518Z,95954
2022-08-08T00:24:53.729Z,95957
2022-08-08T00:26:02.398Z,95951
2022-08-08T00:27:12.075Z,95952
2022-08-08T00:28:34.665Z,95946
2022-08-08T00:29:44.606Z,95949
2022-08-08T00:30:45.279Z,95951
2022-08-08T00:32:07.752Z,95946
2022-08-08T00:33:03.470Z,95948
2022-08-08T00:34:17.076Z,95946
2022-08-08T00:35:22.838Z,95948
2022-08-08T00:36:35.055Z,95947
2022-08-08T00:37:45.669Z,95944
2022-08-08T00:38:54.720Z,95948
2022-08-08T00:41:08.684Z,95942
2022-08-08T00:41:14.919Z,95944
2022-08-08T00:42:30.317Z,95944
2022-08-08T00:43:40.017Z,95943
2022-08-08T00:44:45.397Z,95944
2022-08-08T00:45:55.256Z,95943
2022-08-08T00:47:04.433Z,95941
2022-08-08T00:48:29.139Z,95944
2022-08-08T00:49:25.230Z,95944
2022-08-08T00:50:34.942Z,95942
2022-08-08T00:51:45.646Z,95943
2022-08-08T00:52:55.356Z,95940
2022-08-08T00:54:13.918Z,95946
2022-08-08T00:55:16.605Z,95941
2022-08-08T00:56:29.603Z,95943
2022-08-08T00:57:36.469Z,95949
2022-08-08T00:58:54.296Z,95944
2022-08-08T00:59:54.869Z,95944
2022-08-08T01:01:05.476Z,95945
2022-08-08T01:03:15.220Z,95945
2022-08-08T01:03:57.829Z,95944
2022-08-08T01:04:35.585Z,95947
2022-08-08T01:05:59.007Z,95948
2022-08-08T01:06:59.970Z,95947
2022-08-08T01:08:06.674Z,95944
2022-08-08T01:09:35.363Z,95944
2022-08-08T01:10:27.149Z,95945
2022-08-08T01:11:36.307Z,95945
2022-08-08T01:12:45.443Z,95940
2022-08-08T01:13:58.025Z,95943
2022-08-08T01:15:03.861Z,95942
2022-08-08T01:16:16.843Z,95941
2022-08-08T01:17:25.347Z,95944
2022-08-08T01:18:50.872Z,95940
2022-08-08T01:19:52.700Z,95940
2022-08-08T01:20:56.495Z,95937
2022-08-08T01:22:10.166Z,95937
2022-08-08T01:24:03.497Z,95942
2022-08-08T01:24:27.527Z,95940
2022-08-08T01:25:40.470Z,95945
2022-08-08T01:26:48.241Z,95945
2022-08-08T01:27:59.507Z,95942
2022-08-08T01:29:05.734Z,95946
2022-08-08T01:30:15.109Z,95944
2022-08-08T01:32:03.087Z,95943
2022-08-08T01:32:35.480Z,95944
2022-08-08T01:33:54.045Z,95943
2022-08-08T01:34:56.860Z,95945
2022-08-08T01:36:06.568Z,95945
2022-08-08T01:37:17.341Z,95946
2022-08-08T01:38:27.883Z,95943
2022-08-08T01:39:42.083Z,95942
2022-08-08T01:40:48.297Z,95944
2022-08-08T01:41:57.974Z,95951
2022-08-08T01:43:05.719Z,95945
2022-08-08T01:44:15.474Z,95943
2022-08-08T01:45:25.214Z,95942
2022-08-08T01:46:34.936Z,95942
2022-08-08T01:48:03.714Z,95940
2022-08-08T01:48:52.408Z,95940
2022-08-08T01:50:02.099Z,95945
2022-08-08T01:51:29.970Z,95944
2022-08-08T01:52:41.751Z,95943
2022-08-08T01:54:05.859Z,95945
2022-08-08T01:55:18.314Z,95940
2022-08-08T01:56:26.799Z,95943
2022-08-08T01:57:05.062Z,95947
2022-08-08T01:58:14.801Z,95943
2022-08-08T01:59:37.928Z,95945
2022-08-08T02:00:36.262Z,95951
2022-08-08T02:01:54.954Z,95949
2022-08-08T02:02:56.652Z,95949
2022-08-08T02:04:07.326Z,95951
2022-08-08T02:05:17.995Z,95950
2022-08-08T02:06:31.509Z,95949
2022-08-08T02:07:41.521Z,95951
2022-08-08T02:08:50.048Z,95958
2022-08-08T02:10:02.970Z,95953
2022-08-08T02:11:21.036Z,95955
2022-08-08T02:12:20.256Z,95959
2022-08-08T02:13:52.519Z,95961
2022-08-08T02:14:50.216Z,95962
2022-08-08T02:15:50.299Z,95967
2022-08-08T02:16:58.996Z,95957
2022-08-08T02:18:10.236Z,95962
2022-08-08T02:19:27.115Z,95964
2022-08-08T02:21:00.220Z,95963
2022-08-08T02:21:38.757Z,95966
2022-08-08T02:22:52.722Z,95967
2022-08-08T02:23:58.298Z,95970
2022-08-08T02:25:11.613Z,95968
2022-08-08T02:26:16.823Z,95965
2022-08-08T02:27:26.490Z,95965
2022-08-08T02:28:37.140Z,95963
2022-08-08T02:29:52.082Z,95959
2022-08-08T02:31:01.898Z,95963
2022-08-08T02:32:09.162Z,95958
2022-08-08T02:33:21.495Z,95969
2022-08-08T02:34:33.235Z,95965
2022-08-08T02:36:02.525Z,95964
2022-08-08T02:36:50.869Z,95964
2022-08-08T02:37:59.573Z,95969
2022-08-08T02:39:40.178Z,95971
2022-08-08T02:40:20.977Z,95972
2022-08-08T02:41:59.770Z,95969
2022-08-08T02:42:41.852Z,95971
2022-08-08T02:44:34.831Z,95967
2022-08-08T02:44:59.749Z,95970
2022-08-08T02:46:10.410Z,95975
2022-08-08T02:47:20.078Z,95972
2022-08-08T02:48:28.878Z,95970
2022-08-08T02:49:48.426Z,95965
2022-08-08T02:50:52.998Z,95970
2022-08-08T02:51:59.649Z,95966
2022-08-08T02:53:08.618Z,95968
2022-08-08T02:54:17.402Z,95970
2022-08-08T02:55:31.752Z,95965
2022-08-08T02:56:39.304Z,95968
2022-08-08T02:57:50.621Z,95968
2022-08-08T02:58:59.069Z,95966
2022-08-08T03:00:16.136Z,95968
2022-08-08T03:01:20.711Z,95970
2022-08-08T03:02:30.235Z,95970
2022-08-08T03:03:46.566Z,95971
2022-08-08T03:05:02.210Z,95970
2022-08-08T03:05:59.409Z,95968
2022-08-08T03:07:10.105Z,95967
2022-08-08T03:08:20.789Z,95972
2022-08-08T03:09:30.450Z,95970
2022-08-08T03:10:44.200Z,95973
2022-08-08T03:12:02.350Z,95973
2022-08-08T03:13:07.267Z,95974
2022-08-08T03:15:54.913Z,95973
2022-08-08T03:15:55.030Z,95971
2022-08-08T03:16:34.654Z,95973
2022-08-08T03:17:43.154Z,95977
2022-08-08T03:18:52.828Z,95977
2022-08-08T03:20:03.610Z,95976
2022-08-08T03:21:14.583Z,95976
2022-08-08T03:22:37.497Z,95975
2022-08-08T03:23:40.043Z,95975
2022-08-08T03:24:43.173Z,95971
2022-08-08T03:25:54.078Z,95973
2022-08-08T03:27:02.594Z,95971
2022-08-08T03:28:12.583Z,95973
2022-08-08T03:29:27.148Z,95970
2022-08-08T03:30:34.646Z,95967
2022-08-08T03:32:05.633Z,95967
2022-08-08T03:32:58.793Z,95970
2022-08-08T03:34:01.760Z,95967
2022-08-08T03:35:12.877Z,95969
2022-08-08T03:36:27.462Z,95970
2022-08-08T03:37:59.165Z,95970
2022-08-08T03:38:55.469Z,95972
2022-08-08T03:40:00.340Z,95977
2022-08-08T03:41:08.775Z,95972
2022-08-08T03:42:29.032Z,95974
2022-08-08T03:43:23.256Z,95977
2022-08-08T03:44:33.945Z,95979
2022-08-08T03:46:03.721Z,95979
2022-08-08T03:46:52.371Z,95974
2022-08-08T03:48:01.043Z,95977
2022-08-08T03:49:57.043Z,95976
2022-08-08T03:50:24.441Z,95977
2022-08-08T03:51:40.702Z,95980
2022-08-08T03:52:44.623Z,95977
2022-08-08T03:53:51.499Z,95977
2022-08-08T03:55:11.058Z,95978
2022-08-08T03:56:31.433Z,95979
2022-08-08T03:58:10.013Z,95978
2022-08-08T03:58:37.683Z,95984
2022-08-08T03:59:57.266Z,95983
2022-08-08T04:00:56.564Z,95979
2022-08-08T04:02:13.529Z,95978
2022-08-08T04:03:17.201Z,95977
2022-08-08T04:04:31.025Z,95977
2022-08-08T04:05:37.409Z,95978
2022-08-08T04:06:48.128Z,95975
2022-08-08T04:07:58.170Z,95976
2022-08-08T04:09:10.955Z,95977
2022-08-08T04:10:17.272Z,95983
2022-08-08T04:11:26.968Z,95984
2022-08-08T04:12:37.622Z,95983
2022-08-08T04:14:03.000Z,95980
2022-08-08T04:14:55.988Z,95979
2022-08-08T04:16:05.848Z,95986
2022-08-08T04:17:22.963Z,95988
2022-08-08T04:18:26.072Z,95985
2022-08-08T04:19:36.550Z,95984
2022-08-08T04:20:43.368Z,95989
2022-08-08T04:21:54.108Z,95986
2022-08-08T04:23:03.513Z,95990
2022-08-08T04:24:19.371Z,95996
2022-08-08T04:25:23.093Z,95993
2022-08-08T04:26:35.340Z,95997
2022-08-08T04:28:03.821Z,95996
2022-08-08T04:28:54.484Z,95998
2022-08-08T04:30:17.627Z,95996
2022-08-08T04:31:30.544Z,95994
2022-08-08T04:32:30.487Z,96001
2022-08-08T04:33:38.685Z,96001
2022-08-08T04:34:49.646Z,96006
2022-08-08T04:35:57.178Z,96009
2022-08-08T04:37:06.977Z,96008
2022-08-08T04:38:21.029Z,96010
2022-08-08T04:39:48.469Z,96008
2022-08-08T04:40:36.006Z,96015
2022-08-08T04:41:45.667Z,96013
2022-08-08T04:42:56.578Z,96014
2022-08-08T04:44:05.008Z,96017
2022-08-08T04:45:14.711Z,96017
2022-08-08T04:46:25.041Z,96020
2022-08-08T04:47:36.591Z,96018
2022-08-08T04:48:43.735Z,96020
2022-08-08T04:49:59.240Z,96021
2022-08-08T04:51:04.066Z,96021
2022-08-08T04:52:12.734Z,96021
2022-08-08T04:53:52.756Z,96028
2022-08-08T04:54:40.488Z,96026
2022-08-08T04:55:47.934Z,96024
2022-08-08T04:56:55.404Z,96025
2022-08-08T04:58:06.204Z,96024
2022-08-08T04:59:15.531Z,96028
2022-08-08T05:00:24.505Z,96025
2022-08-08T05:01:35.441Z,96027
2022-08-08T05:02:45.054Z,96030
2022-08-08T05:04:07.329Z,96028
2022-08-08T05:05:06.276Z,96028
2022-08-08T05:06:18.574Z,96030
2022-08-08T05:07:26.645Z,96032
2022-08-08T05:08:37.345Z,96036
2022-08-08T05:09:47.016Z,96038
2022-08-08T05:10:56.798Z,96039
2022-08-08T05:12:06.441Z,96036
2022-08-08T05:13:17.670Z,96036
2022-08-08T05:14:26.837Z,96040
2022-08-08T05:16:48.813Z,96041
2022-08-08T05:16:48.867Z,96035
2022-08-08T05:17:56.803Z,96044
2022-08-08T05:19:06.497Z,96048
2022-08-08T05:20:17.192Z,96050
2022-08-08T05:21:27.868Z,96049
2022-08-08T05:22:37.548Z,96053
2022-08-08T05:23:46.266Z,96052
2022-08-08T05:24:56.909Z,96049
2022-08-08T05:26:06.636Z,96047
2022-08-08T05:27:15.380Z,96044
2022-08-08T05:28:48.484Z,96041
2022-08-08T05:29:36.670Z,96044
2022-08-08T05:30:47.084Z,96040
2022-08-08T05:32:02.957Z,96043
2022-08-08T05:33:05.989Z,96036
2022-08-08T05:34:14.710Z,96036
2022-08-08T05:35:25.389Z,96039
2022-08-08T05:36:36.122Z,96041
2022-08-08T05:37:52.397Z,96041
2022-08-08T05:38:57.503Z,96039
2022-08-08T05:40:05.193Z,96042
2022-08-08T05:41:14.901Z,96045
2022-08-08T05:42:26.099Z,96051
2022-08-08T05:43:38.908Z,96047
2022-08-08T05:44:44.975Z,96048
2022-08-08T05:45:55.035Z,96049
2022-08-08T05:47:05.261Z,96045
2022-08-08T05:48:15.918Z,96048
2022-08-08T05:49:26.714Z,96048
2022-08-08T05:50:38.620Z,96049
2022-08-08T05:51:49.543Z,96052
2022-08-08T05:52:57.640Z,96051
2022-08-08T05:54:26.457Z,96058
2022-08-08T05:55:19.072Z,96057
2022-08-08T05:56:27.747Z,96064
2022-08-08T05:58:04.708Z,96054
2022-08-08T05:58:54.266Z,96054
2022-08-08T06:00:23.345Z,96057
2022-08-08T06:01:09.411Z,96058
2022-08-08T06:02:20.101Z,96061
2022-08-08T06:03:29.868Z,96060
2022-08-08T06:04:40.583Z,96060
2022-08-08T06:05:51.665Z,96064
2022-08-08T06:07:00.019Z,96061
2022-08-08T06:08:28.487Z,96066
2022-08-08T06:09:42.024Z,96063
2022-08-08T06:10:31.000Z,96060
2022-08-08T06:11:45.970Z,96064
2022-08-08T06:12:51.328Z,96062
2022-08-08T06:13:59.039Z,96068
2022-08-08T06:15:08.699Z,96068
2022-08-08T06:16:19.408Z,96063
2022-08-08T06:17:32.293Z,96066
2022-08-08T06:18:40.692Z,96065
2022-08-08T06:19:51.373Z,96065
2022-08-08T06:21:03.492Z,96064
2022-08-08T06:23:23.449Z,96069
2022-08-08T06:24:36.028Z,96072
2022-08-08T06:26:35.365Z,96069
2022-08-08T06:26:53.248Z,96067
2022-08-08T06:28:03.903Z,96069
2022-08-08T06:29:27.001Z,96072
2022-08-08T06:30:26.548Z,96071
2022-08-08T06:31:52.680Z,96071
2022-08-08T06:32:47.587Z,96072
2022-08-08T06:34:25.425Z,96075
2022-08-08T06:35:12.608Z,96079
2022-08-08T06:36:15.497Z,96078
2022-08-08T06:37:26.172Z,96079
2022-08-08T06:38:35.808Z,96077
2022-08-08T06:39:55.659Z,96076
2022-08-08T06:40:56.097Z,96075
2022-08-08T06:42:03.752Z,96071
2022-08-08T06:43:13.399Z,96078
2022-08-08T06:44:25.351Z,96078
2022-08-08T06:45:33.715Z,96079
2022-08-08T06:46:43.407Z,96079
2022-08-08T06:47:58.771Z,96083
2022-08-08T06:49:03.756Z,96085
2022-08-08T06:50:17.485Z,96082
2022-08-08T06:51:25.191Z,96085
2022-08-08T06:52:35.825Z,96086
2022-08-08T06:53:50.649Z,96086
2022-08-08T06:54:57.178Z,96089
2022-08-08T06:56:06.852Z,96092
2022-08-08T06:57:16.550Z,96094
2022-08-08T06:58:30.586Z,96099
2022-08-08T06:59:49.155Z,96094
2022-08-08T07:00:47.938Z,96093
2022-08-08T07:02:18.380Z,96102
2022-08-08T07:03:07.993Z,96101
2022-08-08T07:04:39.192Z,96101
2022-08-08T07:05:29.742Z,96107
2022-08-08T07:06:38.954Z,96107
2022-08-08T07:07:47.649Z,96101
2022-08-08T07:08:58.357Z,96103
2022-08-08T07:10:08.059Z,96100
2022-08-08T07:11:22.351Z,96100
2022-08-08T07:12:30.458Z,96098
2022-08-08T07:13:36.231Z,96103
2022-08-08T07:14:49.456Z,96099
2022-08-08T07:16:05.551Z,96101
2022-08-08T07:17:09.054Z,96104
2022-08-08T07:18:34.888Z,96105
2022-08-08T07:19:27.600Z,96108
2022-08-08T07:20:40.619Z,96104
2022-08-08T07:21:48.221Z,96104
2022-08-08T07:22:57.671Z,96104
2022-08-08T07:24:09.389Z,96101
2022-08-08T07:25:17.175Z,96108
2022-08-08T07:26:29.183Z,96110
2022-08-08T07:27:47.655Z,96110
2022-08-08T07:28:48.022Z,96107
2022-08-08T07:30:02.750Z,96106
2022-08-08T07:31:10.162Z,96110
2022-08-08T07:32:22.154Z,96111
2022-08-08T07:33:28.649Z,96115
2022-08-08T07:34:40.033Z,96116
2022-08-08T07:35:48.967Z,96113
2022-08-08T07:36:58.631Z,96116
2022-08-08T07:38:10.070Z,96116
2022-08-08T07:39:22.432Z,96118
2022-08-08T07:40:32.561Z,96119
2022-08-08T07:41:59.058Z,96119
2022-08-08T07:42:51.015Z,96123
2022-08-08T07:43:59.730Z,96121
2022-08-08T07:45:10.404Z,96119
2022-08-08T07:46:24.313Z,96118
2022-08-08T07:47:38.727Z,96119
2022-08-08T07:48:42.401Z,96117
2022-08-08T07:49:52.091Z,96119
2022-08-08T07:51:01.780Z,96123
2022-08-08T07:52:13.230Z,96121
2022-08-08T07:53:24.051Z,96124
2022-08-08T07:54:32.810Z,96128
2022-08-08T07:55:43.492Z,96128
2022-08-08T07:56:52.239Z,96127
2022-08-08T07:58:01.885Z,96129
2022-08-08T07:59:10.380Z,96125
2022-08-08T08:00:19.201Z,96130
2022-08-08T08:02:33.782Z,96129
2022-08-08T08:02:41.596Z,96131
2022-08-08T08:03:49.230Z,96131
2022-08-08T08:04:58.079Z,96130
2022-08-08T08:06:08.796Z,96131
2022-08-08T08:07:22.686Z,96132
2022-08-08T08:08:30.201Z,96130
2022-08-08T08:09:39.926Z,96132
2022-08-08T08:10:50.617Z,96132
2022-08-08T08:11:59.277Z,96129
2022-08-08T08:13:08.964Z,96135
2022-08-08T08:14:19.625Z,96130
2022-08-08T08:15:31.988Z,96135
2022-08-08T08:16:38.219Z,96132
2022-08-08T08:17:49.500Z,96134
2022-08-08T08:18:57.583Z,96137
2022-08-08T08:20:07.253Z,96137
2022-08-08T08:21:18.682Z,96132
2022-08-08T08:22:31.846Z,96138
2022-08-08T08:23:40.575Z,96138
2022-08-08T08:24:48.125Z,96138
2022-08-08T08:25:59.964Z,96140
2022-08-08T08:27:09.343Z,96139
2022-08-08T08:28:21.342Z,96138
2022-08-08T08:29:29.041Z,96136
2022-08-08T08:30:38.715Z,96139
2022-08-08T08:31:53.905Z,96139
2022-08-08T08:32:59.208Z,96138
2022-08-08T08:34:09.787Z,96138
2022-08-08T08:35:21.569Z,96134
2022-08-08T08:36:28.191Z,96138
2022-08-08T08:37:53.218Z,96141
2022-08-08T08:38:49.142Z,96134
2022-08-08T08:40:00.726Z,96137
2022-08-08T08:41:06.212Z,96140
2022-08-08T08:42:19.224Z,96138
2022-08-08T08:43:28.850Z,96140
2022-08-08T08:44:37.986Z,96138
2022-08-08T08:45:46.670Z,96142
2022-08-08T08:46:57.840Z,96138
2022-08-08T08:48:08.476Z,96139
2022-08-08T08:49:18.671Z,96137
2022-08-08T08:50:31.624Z,96138
2022-08-08T08:51:39.049Z,96137
2022-08-08T08:52:59.399Z,96141
2022-08-08T08:54:00.800Z,96136
2022-08-08T08:55:08.089Z,96139
2022-08-08T08:56:18.163Z,96138
2022-08-08T08:57:27.557Z,96142
2022-08-08T08:58:37.797Z,96141
2022-08-08T08:59:59.890Z,96140
2022-08-08T09:01:05.160Z,96143
2022-08-08T09:02:09.254Z,96138
2022-08-08T09:03:19.896Z,96139
2022-08-08T09:04:31.897Z,96144
2022-08-08T09:05:49.470Z,96139
2022-08-08T09:06:51.888Z,96144
2022-08-08T09:08:13.216Z,96144
2022-08-08T09:09:19.037Z,96140
2022-08-08T09:10:22.932Z,96142
2022-08-08T09:11:33.579Z,96142
2022-08-08T09:12:45.357Z,96142
2022-08-08T09:13:54.006Z,96143
2022-08-08T09:15:06.108Z,96144
2022-08-08T09:16:13.346Z,96140
2022-08-08T09:17:31.796Z,96144
2022-08-08T09:18:34.718Z,96140
2022-08-08T09:21:54.480Z,96141
2022-08-08T09:21:55.276Z,96136
2022-08-08T09:22:06.297Z,96139
2022-08-08T09:23:17.198Z,96143
2022-08-08T09:24:24.146Z,96141
2022-08-08T09:25:35.815Z,96146
2022-08-08T09:26:42.538Z,96148
2022-08-08T09:27:57.861Z,96146
2022-08-08T09:29:06.605Z,96143
2022-08-08T09:30:14.620Z,96144
2022-08-08T09:31:23.888Z,96146
2022-08-08T09:32:33.801Z,96142
2022-08-08T09:33:55.344Z,96144
2022-08-08T09:34:55.160Z,96148
2022-08-08T09:36:04.900Z,96146
2022-08-08T09:37:29.350Z,96144
2022-08-08T09:38:25.269Z,96147
2022-08-08T09:39:35.938Z,96151
2022-08-08T09:40:47.891Z,96147
2022-08-08T09:42:15.314Z,96149
2022-08-08T09:43:06.808Z,96148
2022-08-08T09:44:18.959Z,96142
2022-08-08T09:45:54.456Z,96147
2022-08-08T09:46:38.829Z,96145
2022-08-08T09:48:05.229Z,96147
2022-08-08T09:48:58.257Z,96145
2022-08-08T09:50:11.904Z,96146
2022-08-08T09:51:18.569Z,96150
2022-08-08T09:52:53.987Z,96146
2022-08-08T09:53:54.409Z,96145
2022-08-08T09:54:50.541Z,96147
2022-08-08T09:56:03.995Z,96143
2022-08-08T09:57:16.324Z,96136
2022-08-08T09:58:26.402Z,96140
2022-08-08T09:59:53.607Z,96140
2022-08-08T10:00:47.876Z,96142
2022-08-08T10:01:58.860Z,96148
2022-08-08T10:03:03.215Z,96148
2022-08-08T10:04:12.867Z,96147
2022-08-08T10:05:25.378Z,96146
2022-08-08T10:06:35.556Z,96147
2022-08-08T10:07:45.110Z,96148
2022-08-08T10:08:53.508Z,96146
2022-08-08T10:10:02.176Z,96140
2022-08-08T10:11:11.975Z,96141
2022-08-08T10:12:27.229Z,96140
2022-08-08T10:13:35.948Z,96140
2022-08-08T10:14:43.900Z,96137
2022-08-08T10:15:58.978Z,96141
2022-08-08T10:17:02.248Z,96139
2022-08-08T10:18:17.134Z,96134
2022-08-08T10:19:23.675Z,96134
2022-08-08T10:20:40.340Z,96136
2022-08-08T10:21:50.182Z,96140
2022-08-08T10:22:55.268Z,96136
2022-08-08T10:24:12.107Z,96142
2022-08-08T10:25:16.762Z,96138
2022-08-08T10:26:31.232Z,96138
2022-08-08T10:27:36.496Z,96134
2022-08-08T10:28:53.801Z,96137
2022-08-08T10:29:58.529Z,96138
2022-08-08T10:31:07.516Z,96141
2022-08-08T10:32:16.316Z,96133
2022-08-08T10:33:38.110Z,96132
2022-08-08T10:34:37.622Z,96130
2022-08-08T10:36:07.951Z,96131
2022-08-08T10:36:59.492Z,96131
2022-08-08T10:38:08.754Z,96129
2022-08-08T10:39:19.323Z,96133
2022-08-08T10:40:30.735Z,96128
2022-08-08T10:41:58.759Z,96126
2022-08-08T10:42:50.284Z,96138
2022-08-08T10:43:59.956Z,96133
2022-08-08T10:45:09.765Z,96136
2022-08-08T10:46:26.005Z,96131
2022-08-08T10:47:30.479Z,96131
2022-08-08T10:48:56.423Z,96131
2022-08-08T10:50:01.007Z,96134
2022-08-08T10:50:58.945Z,96136
2022-08-08T10:52:09.629Z,96128
2022-08-08T10:53:19.463Z,96139
2022-08-08T10:54:30.098Z,96133
2022-08-08T10:55:45.859Z,96135
2022-08-08T10:56:50.383Z,96134
2022-08-08T10:58:00.066Z,96134
2022-08-08T10:59:08.807Z,96129
2022-08-08T11:00:20.683Z,96137
2022-08-08T11:01:28.186Z,96133
2022-08-08T11:02:37.790Z,96131
2022-08-08T11:03:52.948Z,96133
2022-08-08T11:04:58.141Z,96129
2022-08-08T11:06:12.219Z,96130
2022-08-08T11:07:39.017Z,96131
2022-08-08T11:08:30.420Z,96130
2022-08-08T11:09:37.754Z,96131
2022-08-08T11:10:47.481Z,96130
2022-08-08T11:12:00.431Z,96130
2022-08-08T11:13:27.348Z,96127
2022-08-08T11:14:17.409Z,96130
2022-08-08T11:15:30.550Z,96125
2022-08-08T11:16:36.757Z,96124
2022-08-08T11:17:59.149Z,96124
2022-08-08T11:18:56.111Z,96126
2022-08-08T11:20:11.234Z,96125
2022-08-08T11:21:19.430Z,96129
2022-08-08T11:22:25.188Z,96129
2022-08-08T11:23:33.858Z,96130
2022-08-08T11:24:43.523Z,96125
2022-08-08T11:25:55.451Z,96130
2022-08-08T11:27:10.814Z,96124
2022-08-08T11:28:13.737Z,96129
2022-08-08T11:29:22.888Z,96120
2022-08-08T11:30:33.075Z,96123
2022-08-08T11:31:46.991Z,96121
2022-08-08T11:32:53.777Z,96122
2022-08-08T11:34:03.738Z,96123
2022-08-08T11:35:24.573Z,96119
2022-08-08T11:36:28.046Z,96117
2022-08-08T11:37:39.717Z,96124
2022-08-08T11:38:54.563Z,96120
2022-08-08T11:39:57.059Z,96122
2022-08-08T11:41:05.971Z,96122
2022-08-08T11:42:15.648Z,96124
2022-08-08T11:43:25.894Z,96124
2022-08-08T11:44:35.980Z,96122
2022-08-08T11:46:07.254Z,96121
2022-08-08T11:46:55.296Z,96120
2022-08-08T11:48:05.495Z,96124
2022-08-08T11:49:13.961Z,96123
2022-08-08T11:50:23.651Z,96125
2022-08-08T11:51:39.411Z,96129
2022-08-08T11:52:45.351Z,96125
2022-08-08T11:53:55.401Z,96119
2022-08-08T11:55:03.958Z,96118
2022-08-08T11:56:13.612Z,96120
2022-08-08T11:57:23.902Z,96120
2022-08-08T11:58:31.957Z,96113
2022-08-08T11:59:58.066Z,96115
2022-08-08T12:00:52.329Z,96113
2022-08-08T12:02:21.606Z,96111
2022-08-08T12:03:13.757Z,96110
2022-08-08T12:04:23.337Z,96116
2022-08-08T12:05:33.494Z,96113
2022-08-08T12:06:43.001Z,96115
2022-08-08T12:07:52.290Z,96112
2022-08-08T12:09:01.944Z,96114
2022-08-08T12:10:11.057Z,96109
2022-08-08T12:11:23.075Z,96106
2022-08-08T12:12:31.077Z,96104
2022-08-08T12:14:03.260Z,96103
2022-08-08T12:14:54.639Z,96104
2022-08-08T12:16:02.071Z,96100
2022-08-08T12:17:10.922Z,96096
2022-08-08T12:18:21.142Z,96097
2022-08-08T12:19:31.362Z,96100
2022-08-08T12:20:39.886Z,96098
2022-08-08T12:21:58.834Z,96104
2022-08-08T12:23:00.214Z,96106
2022-08-08T12:24:10.927Z,96100
2022-08-08T12:25:19.628Z,96099
2022-08-08T12:26:35.670Z,96100
2022-08-08T12:27:43.468Z,96103
2022-08-08T12:28:50.696Z,96097
2022-08-08T12:29:59.360Z,96094
2022-08-08T12:31:09.999Z,96102
2022-08-08T12:32:22.447Z,96102
2022-08-08T12:33:36.982Z,96104
2022-08-08T12:34:40.300Z,96104
2022-08-08T12:35:52.150Z,96099
2022-08-08T12:36:58.692Z,96103
2022-08-08T12:38:07.387Z,96106
2022-08-08T12:39:18.216Z,96105
2022-08-08T12:40:28.857Z,96108
2022-08-08T12:41:57.608Z,96105
2022-08-08T12:42:48.144Z,96105
2022-08-08T12:44:00.247Z,96105
2022-08-08T12:45:07.351Z,96106
2022-08-08T12:46:18.949Z,96107
2022-08-08T12:47:43.612Z,96103
2022-08-08T12:48:38.754Z,96106
2022-08-08T12:49:48.092Z,96095
2022-08-08T12:50:58.368Z,96101
2022-08-08T12:52:14.287Z,96102
2022-08-08T12:53:18.055Z,96101
2022-08-08T12:54:27.726Z,96097
2022-08-08T12:56:04.194Z,96095
2022-08-08T12:56:49.305Z,96095
2022-08-08T12:58:00.146Z,96097
2022-08-08T12:59:09.947Z,96094
2022-08-08T13:00:20.315Z,96094
2022-08-08T13:01:35.309Z,96096
2022-08-08T13:02:41.958Z,96093
2022-08-08T13:03:51.800Z,96094
2022-08-08T13:05:01.512Z,96091
2022-08-08T13:06:14.047Z,96095
2022-08-08T13:08:02.792Z,96099
2022-08-08T13:08:36.607Z,96093
2022-08-08T13:10:00.965Z,96092
2022-08-08T13:10:55.761Z,96087
2022-08-08T13:12:04.132Z,96085
2022-08-08T13:13:13.262Z,96096
2022-08-08T13:14:22.932Z,96088
2022-08-08T13:15:31.589Z,96087
2022-08-08T13:16:42.261Z,96082
2022-08-08T13:17:54.763Z,96089
2022-08-08T13:19:07.816Z,96091
2022-08-08T13:20:13.411Z,96093
2022-08-08T13:21:22.029Z,96092
2022-08-08T13:22:32.782Z,96087
2022-08-08T13:23:46.384Z,96079
2022-08-08T13:24:51.076Z,96079
2022-08-08T13:26:04.214Z,96081
2022-08-08T13:27:12.554Z,96087
2022-08-08T13:28:22.056Z,96079
2022-08-08T13:29:37.831Z,96073
2022-08-08T13:30:43.377Z,96076
2022-08-08T13:31:53.012Z,96075
2022-08-08T13:33:02.300Z,96076
2022-08-08T13:34:11.893Z,96076
2022-08-08T13:35:24.596Z,96074
2022-08-08T13:36:31.798Z,96070
2022-08-08T13:37:52.368Z,96073
2022-08-08T13:38:52.123Z,96070
2022-08-08T13:40:01.782Z,96075
2022-08-08T13:41:16.269Z,96070
2022-08-08T13:42:21.107Z,96068
2022-08-08T13:43:29.785Z,96063
2022-08-08T13:44:39.406Z,96072
2022-08-08T13:45:49.053Z,96070
2022-08-08T13:46:57.690Z,96061
2022-08-08T13:48:08.393Z,96065
2022-08-08T13:50:34.103Z,96067
2022-08-08T13:50:34.303Z,96068
2022-08-08T13:51:41.619Z,96063
2022-08-08T13:52:49.045Z,96062
2022-08-08T13:53:59.947Z,96062
2022-08-08T13:55:07.433Z,96070
2022-08-08T13:56:17.083Z,96065
2022-08-08T13:57:46.213Z,96064
2022-08-08T13:58:37.433Z,96062
2022-08-08T13:59:48.987Z,96070
2022-08-08T14:00:58.810Z,96067
2022-08-08T14:02:08.458Z,96068
2022-08-08T14:03:47.528Z,96072
2022-08-08T14:04:28.792Z,96076
2022-08-08T14:05:38.391Z,96071
2022-08-08T14:06:49.017Z,96072
2022-08-08T14:08:01.283Z,96072
2022-08-08T14:09:18.706Z,96071
2022-08-08T14:10:17.917Z,96057
2022-08-08T14:11:28.568Z,96057
2022-08-08T14:12:39.223Z,96065
2022-08-08T14:13:59.267Z,96076
2022-08-08T14:14:57.552Z,96073
2022-08-08T14:16:16.353Z,96074
2022-08-08T14:17:22.256Z,96074
2022-08-08T14:18:34.456Z,96071
2022-08-08T14:19:55.787Z,96068
2022-08-08T14:20:55.696Z,96069
2022-08-08T14:22:01.681Z,96073
2022-08-08T14:23:20.890Z,96069
2022-08-08T14:24:23.038Z,96076
2022-08-08T14:25:32.711Z,96073
2022-08-08T14:26:42.568Z,96070
2022-08-08T14:27:59.475Z,96070
2022-08-08T14:29:05.875Z,96064
2022-08-08T14:30:17.230Z,96071
2022-08-08T14:31:37.198Z,96076
2022-08-08T14:32:35.158Z,96072
2022-08-08T14:33:44.472Z,96071
2022-08-08T14:34:55.156Z,96058
2022-08-08T14:36:05.814Z,96063
2022-08-08T14:37:15.454Z,96062
2022-08-08T14:38:33.746Z,96059
2022-08-08T14:39:47.767Z,96062
2022-08-08T14:40:47.518Z,96065
2022-08-08T14:41:55.181Z,96068
2022-08-08T14:43:22.352Z,96073
2022-08-08T14:44:21.262Z,96072
2022-08-08T14:45:29.265Z,96069
2022-08-08T14:46:35.834Z,96076
2022-08-08T14:47:44.545Z,96081
2022-08-08T14:48:57.405Z,96073
2022-08-08T14:50:11.602Z,96075
2022-08-08T14:51:17.729Z,96072
2022-08-08T14:52:26.117Z,96071
2022-08-08T14:53:35.784Z,96073
2022-08-08T14:54:46.418Z,96077
2022-08-08T14:56:01.754Z,96078
2022-08-08T14:57:06.705Z,96076
2022-08-08T14:58:16.360Z,96076
2022-08-08T14:59:31.877Z,96076
2022-08-08T15:00:36.643Z,96075
2022-08-08T15:01:46.355Z,96080
2022-08-08T15:02:58.404Z,96075